Glenbrook, CT

3:38 AM EDT op 26 oktober 2014 (GMT -0400)
Waterbury Avenue | Change Station
CLOSE
Current Station
Persoonlijk weerstation
Location: Stamford, CT
Geometrische hoogte: 46 ft
Nabije weerstations

Hoogte 46 ft 41.06 °N, 73.51 °W | Updated 8 seconds ago

Gedeeltelijk bewolkt
Gedeeltelijk bewolkt
51.4 °F
Voelt als 51.4 °F
N
0.0
Wind Variabel Wind van NNO
Gusts 0.0 mijl/u

Vandaag
Hoog -- | Laag -- °F
--% Kans op neerslag
Gisteren
Hoog -- | Laag -- °F
Precip. -- inches
7:17 AM 5:57 PM
Wassende halvemaan, 6% visible
Druk 29.53 inches
Zicht 9.0 mijlen
Wolken Helder
Dauwpunt 49 °F
Vochtigheid 93%
Neerslag 0.00 inches
Dikte sneeuw Niet beschikbaar.
UV 0 van de 12
Pollen .80 van de 12
Ozon Goed
Flu Activity Local Activity
METAR KHPN 260656Z 00000KT 9SM CLR 11/08 A2953 RMK AO2 SLP000 T01060083

More Conditions Fewer Conditions

Druk 29.53 inches
Zicht 9.0 mijlen
Wolken Helder
Dauwpunt 49 °F
Vochtigheid 93%
Neerslag 0.00 inches
Dikte sneeuw Niet beschikbaar.
UV 0 van de 12
Pollen .80 van de 12
Ozon Goed
Flu Activity Local Activity
METAR KHPN 260656Z 00000KT 9SM CLR 11/08 A2953 RMK AO2 SLP000 T01060083

More Conditions Fewer Conditions

10-Day Weather Forecast

Almanac

Astronomie

Oct. 26, 2014 Opkomst Ondergang
Werkelijke tijd 7:17 AM EDT 5:57 PM EDT
Burgerlijke schemering 6:49 AM EDT 6:25 PM EDT
Nautische schemering 6:17 AM EDT 6:57 PM EDT
Astronomische schemering 5:45 AM EDT 7:29 PM EDT
Maan 9:54 AM EDT 8:05 PM EDT
Golflengte van het zichtbare licht 11h 35m
Daglengte
10h 39m
Tomorrow will be 2m 30s shorter.
Wassende halvemaan, 6% of the Moon is Illuminated
Vandaag
Wassende halvemaan
oktober 30
Eerste kwartier
nov 6
Volle maan
nov 14
Laatste kwartier
nov 22
Nieuw

Extremen vandaag

State Highs State Lows

Community

WunderPhotos

Upload Photos

1,765,115 foto’s ge-upload!

Nearby

Luchtkwaliteit

  Luchtkwaliteit LK-index Verontreinigende stof
Gisteren Goed
OZONE
Actueel Goed
OZONE
zondag Goed
PM2.5
maandag Goed
PM2.5

Dikte sneeuw

Station Depth Geometrische hoogte
Er is geen verse sneeuw gerapporteerd.

Aardbevingen

Stad Distance Mag. Time & Date
No recent earthquake activity has been reported nearby.
Minimum magnitude displayed is 2.5.

Watertemperatuur langs de kust

Plaats Temperatuur
Kings Point, NY 57.9 °F
Bridgeport, CT 59.0 °F

Nabije weerstations